createdAt,value
2024-02-28T00:02:12.470Z,-12.97
2024-02-28T00:05:20.799Z,-12.54
2024-02-28T00:08:29.785Z,-12.30
2024-02-28T00:11:36.730Z,-12.42
2024-02-28T00:14:43.495Z,-11.37
2024-02-28T00:17:50.125Z,-10.56
2024-02-28T00:20:57.755Z,-9.28
2024-02-28T00:24:06.618Z,-8.66
2024-02-28T00:27:15.431Z,-7.84
2024-02-28T00:30:22.840Z,-7.77
2024-02-28T00:33:30.480Z,-6.96
2024-02-28T00:36:47.868Z,-6.19
2024-02-28T00:40:00.988Z,-5.80
2024-02-28T00:43:10.305Z,-5.57
2024-02-28T00:46:17.564Z,-7.65
2024-02-28T00:49:24.844Z,-8.69
2024-02-28T00:52:33.759Z,-8.07
2024-02-28T00:55:41.912Z,-7.83
2024-02-28T00:58:49.119Z,-6.59
2024-02-28T01:01:56.392Z,-5.53
2024-02-28T01:05:03.381Z,-5.60
2024-02-28T01:08:11.198Z,-4.20
2024-02-28T01:11:20.325Z,-4.87
2024-02-28T01:14:28.158Z,-4.21
2024-02-28T01:17:35.225Z,-2.84
2024-02-28T01:20:42.431Z,-0.86
2024-02-28T01:23:49.823Z,-0.37
2024-02-28T01:26:58.673Z,-0.09
2024-02-28T01:30:05.720Z,0.54
2024-02-28T01:33:12.276Z,0.26
2024-02-28T01:36:30.682Z,-1.49
2024-02-28T01:39:38.221Z,0.53
2024-02-28T01:42:46.838Z,0.90
2024-02-28T01:45:54.400Z,1.18
2024-02-28T01:49:02.892Z,0.93
2024-02-28T01:52:10.714Z,1.13
2024-02-28T01:55:18.216Z,0.80
2024-02-28T01:58:27.273Z,0.71
2024-02-28T02:01:34.137Z,0.30
2024-02-28T02:04:41.415Z,-0.40
2024-02-28T02:07:49.332Z,0.41
2024-02-28T02:10:56.125Z,0.69
2024-02-28T02:14:04.834Z,0.49
2024-02-28T02:17:12.264Z,-0.10
2024-02-28T02:20:19.708Z,-0.10
2024-02-28T02:23:28.459Z,0.53
2024-02-28T02:26:35.990Z,0.79
2024-02-28T02:29:43.258Z,0.47
2024-02-28T02:32:50.745Z,-0.36
2024-02-28T02:35:58.837Z,-0.34
2024-02-28T02:39:10.255Z,-0.65
2024-02-28T02:42:17.694Z,-1.29
2024-02-28T02:45:27.818Z,-1.94
2024-02-28T02:48:39.819Z,-1.61
2024-02-28T02:51:47.288Z,-1.49
2024-02-28T02:54:56.093Z,-1.38
2024-02-28T02:58:04.410Z,-1.20
2024-02-28T03:01:18.421Z,-1.13
2024-02-28T03:04:28.847Z,-1.01
2024-02-28T03:07:38.832Z,-1.40
2024-02-28T03:10:49.638Z,-1.17
2024-02-28T03:13:56.580Z,-0.98
2024-02-28T03:17:06.686Z,-0.99
2024-02-28T03:20:15.309Z,-0.68
2024-02-28T03:23:22.573Z,-0.53
2024-02-28T03:26:30.976Z,-0.15
2024-02-28T03:29:39.480Z,-0.41
2024-02-28T03:32:46.503Z,-0.67
2024-02-28T03:35:53.174Z,-0.82
2024-02-28T03:39:00.231Z,-1.01
2024-02-28T03:42:09.704Z,-1.13
2024-02-28T03:45:17.717Z,-1.02
2024-02-28T03:48:25.023Z,-1.08
2024-02-28T03:51:32.608Z,-0.91
2024-02-28T03:54:39.213Z,-0.78
2024-02-28T03:57:53.795Z,-1.20
2024-02-28T04:01:00.764Z,-1.29
2024-02-28T04:04:07.722Z,-1.54
2024-02-28T04:07:14.814Z,-0.82
2024-02-28T04:10:21.684Z,-0.65
2024-02-28T04:13:29.991Z,-0.41
2024-02-28T04:16:40.887Z,-0.11
2024-02-28T04:19:47.453Z,-0.25
2024-02-28T04:22:54.155Z,-0.07
2024-02-28T04:26:00.928Z,-0.00
2024-02-28T04:29:15.771Z,0.37
2024-02-28T04:32:22.460Z,0.71
2024-02-28T04:35:29.404Z,1.10
2024-02-28T04:38:37.048Z,1.19
2024-02-28T04:41:43.633Z,1.12
2024-02-28T04:44:53.708Z,0.65
2024-02-28T04:48:01.413Z,0.64
2024-02-28T04:51:09.226Z,0.28
2024-02-28T04:54:16.642Z,0.04
2024-02-28T04:57:23.652Z,-0.02
2024-02-28T05:00:32.860Z,0.47
2024-02-28T05:03:40.182Z,0.62
2024-02-28T05:06:47.489Z,0.65
2024-02-28T05:09:55.154Z,0.14
2024-02-28T05:13:02.547Z,0.63
2024-02-28T05:16:17.466Z,0.26
2024-02-28T05:19:25.380Z,0.74
2024-02-28T05:22:32.069Z,0.64
2024-02-28T05:25:39.431Z,0.84
2024-02-28T05:28:46.241Z,0.96
2024-02-28T05:31:55.645Z,0.56
2024-02-28T05:35:03.559Z,0.33
2024-02-28T05:38:11.150Z,0.39
2024-02-28T05:41:19.932Z,0.20
2024-02-28T05:44:27.477Z,-0.71
2024-02-28T05:47:35.830Z,-0.95
2024-02-28T05:50:43.557Z,-0.64
2024-02-28T05:53:50.194Z,-0.22
2024-02-28T05:56:56.910Z,-1.51
2024-02-28T06:00:11.703Z,-2.22
2024-02-28T06:03:20.680Z,-2.15
2024-02-28T06:06:28.038Z,-2.51
2024-02-28T06:09:35.607Z,-1.23
2024-02-28T06:12:42.486Z,-0.70
2024-02-28T06:15:49.806Z,-0.93
2024-02-28T06:19:00.462Z,-0.82
2024-02-28T06:22:09.654Z,-0.64
2024-02-28T06:25:21.078Z,-0.92
2024-02-28T06:28:27.733Z,-0.89
2024-02-28T06:31:34.437Z,-1.24
2024-02-28T06:34:44.051Z,-1.58
2024-02-28T06:37:52.384Z,-1.74
2024-02-28T06:40:59.457Z,-1.21
2024-02-28T06:44:07.111Z,-1.01
2024-02-28T06:47:13.954Z,-1.33
2024-02-28T06:50:24.372Z,-0.91
2024-02-28T06:53:31.986Z,-0.81
2024-02-28T06:56:39.854Z,-0.81
2024-02-28T06:59:47.402Z,-1.10
2024-02-28T07:02:55.344Z,-1.51
2024-02-28T07:06:04.370Z,-1.15
2024-02-28T07:09:12.884Z,-1.27
2024-02-28T07:12:20.182Z,-1.36
2024-02-28T07:15:27.603Z,-1.42
2024-02-28T07:18:34.389Z,-1.79
2024-02-28T07:21:42.879Z,-1.75
2024-02-28T07:24:50.530Z,-1.86
2024-02-28T07:27:57.100Z,-1.81
2024-02-28T07:31:03.986Z,-1.98
2024-02-28T07:34:11.553Z,-1.93
2024-02-28T07:37:45.429Z,-2.66
2024-02-28T07:41:03.527Z,-2.34
2024-02-28T07:44:12.415Z,-2.46
2024-02-28T07:47:20.173Z,-2.90
2024-02-28T07:50:29.529Z,-2.92
2024-02-28T07:53:39.960Z,-3.05
2024-02-28T07:56:56.631Z,-3.30
2024-02-28T08:00:04.473Z,-3.73
2024-02-28T08:03:18.716Z,-3.81
2024-02-28T08:06:26.066Z,-3.72
2024-02-28T08:09:34.806Z,-3.43
2024-02-28T08:12:41.925Z,-3.56
2024-02-28T08:15:48.893Z,-3.64
2024-02-28T08:18:55.971Z,-3.86
2024-02-28T08:22:04.031Z,-4.26
2024-02-28T08:25:14.067Z,-4.26
2024-02-28T08:28:21.605Z,-4.24
2024-02-28T08:31:28.312Z,-4.33
2024-02-28T08:34:35.472Z,-4.28
2024-02-28T08:37:43.933Z,-4.41
2024-02-28T08:40:53.348Z,-4.55
2024-02-28T08:44:01.473Z,-4.64
2024-02-28T08:47:11.318Z,-4.66
2024-02-28T08:50:18.394Z,-4.70
2024-02-28T08:53:25.337Z,-4.84
2024-02-28T08:56:38.323Z,-5.01
2024-02-28T08:59:47.161Z,-5.19
2024-02-28T09:02:56.824Z,-4.78
2024-02-28T09:06:04.674Z,-4.47
2024-02-28T09:09:13.012Z,-4.44
2024-02-28T09:12:21.853Z,-4.48
2024-02-28T09:15:28.676Z,-4.28
2024-02-28T09:18:36.252Z,-4.23
2024-02-28T09:21:43.888Z,-4.43
2024-02-28T09:24:51.491Z,-4.98
2024-02-28T09:27:59.869Z,-4.36
2024-02-28T09:31:07.971Z,-4.27
2024-02-28T09:34:14.667Z,-4.74
2024-02-28T09:37:23.058Z,-4.88
2024-02-28T09:40:30.136Z,-4.72
2024-02-28T09:43:45.296Z,-4.50
2024-02-28T09:46:53.768Z,-4.44
2024-02-28T09:50:03.360Z,-4.59
2024-02-28T09:53:11.397Z,-4.62
2024-02-28T09:56:20.597Z,-4.70
2024-02-28T09:59:39.720Z,-5.00
2024-02-28T10:02:55.939Z,-5.58
2024-02-28T10:06:05.590Z,-5.55
2024-02-28T10:09:13.586Z,-5.68
2024-02-28T10:12:21.829Z,-5.67
2024-02-28T10:15:33.540Z,-5.92
2024-02-28T10:18:42.127Z,-5.78
2024-02-28T10:21:54.117Z,-5.55
2024-02-28T10:25:04.563Z,-5.83
2024-02-28T10:28:11.194Z,-6.12
2024-02-28T10:31:20.138Z,-6.23
2024-02-28T10:34:27.465Z,-6.49
2024-02-28T10:37:38.015Z,-6.46
2024-02-28T10:40:45.589Z,-6.73
2024-02-28T10:43:54.341Z,-6.49
2024-02-28T10:47:04.574Z,-6.35
2024-02-28T10:50:12.388Z,-6.46
2024-02-28T10:53:20.032Z,-6.79
2024-02-28T10:56:26.782Z,-6.57
2024-02-28T10:59:37.455Z,-6.75
2024-02-28T11:02:45.895Z,-7.02
2024-02-28T11:05:52.513Z,-6.78
2024-02-28T11:08:59.657Z,-6.92
2024-02-28T11:12:09.215Z,-7.11
2024-02-28T11:15:21.457Z,-7.10
2024-02-28T11:18:30.010Z,-7.31
2024-02-28T11:21:39.514Z,-7.73
2024-02-28T11:24:49.014Z,-7.94
2024-02-28T11:27:56.170Z,-7.89
2024-02-28T11:31:04.130Z,-7.56
2024-02-28T11:34:13.409Z,-7.84
2024-02-28T11:37:20.669Z,-7.59
2024-02-28T11:40:28.795Z,-7.30
2024-02-28T11:43:49.956Z,-7.28
2024-02-28T11:46:59.036Z,-7.64
2024-02-28T11:50:10.554Z,-7.79
2024-02-28T11:53:17.837Z,-8.23
2024-02-28T11:56:25.053Z,-8.38
2024-02-28T11:59:31.881Z,-8.23
2024-02-28T12:02:40.014Z,-8.04
2024-02-28T12:05:51.108Z,-7.89
2024-02-28T12:08:58.018Z,-7.90
2024-02-28T12:12:08.783Z,-8.14
2024-02-28T12:15:17.521Z,-8.16
2024-02-28T12:18:24.019Z,-8.37
2024-02-28T12:21:33.002Z,-8.06
2024-02-28T12:24:42.954Z,-8.06
2024-02-28T12:27:51.842Z,-8.18
2024-02-28T12:30:58.767Z,-8.11
2024-02-28T12:34:07.196Z,-7.80
2024-02-28T12:37:16.006Z,-8.17
2024-02-28T12:40:27.005Z,-7.94
2024-02-28T12:43:35.548Z,-8.40
2024-02-28T12:46:42.276Z,-8.50
2024-02-28T12:49:49.687Z,-8.56
2024-02-28T12:52:58.886Z,-8.60
2024-02-28T12:56:08.715Z,-8.65
2024-02-28T12:59:16.013Z,-8.41
2024-02-28T13:02:22.588Z,-8.36
2024-02-28T13:05:32.129Z,-8.35
2024-02-28T13:08:41.157Z,-8.39
2024-02-28T13:11:47.880Z,-8.23
2024-02-28T13:14:55.072Z,-7.93
2024-02-28T13:18:04.381Z,-7.86
2024-02-28T13:21:11.031Z,-7.72
2024-02-28T13:24:19.509Z,-7.62
2024-02-28T13:27:27.225Z,-7.61
2024-02-28T13:30:34.485Z,-7.98
2024-02-28T13:33:43.459Z,-8.08
2024-02-28T13:36:49.989Z,-8.67
2024-02-28T13:39:58.735Z,-8.61
2024-02-28T13:43:06.137Z,-8.90
2024-02-28T13:46:13.212Z,-8.78
2024-02-28T13:49:22.541Z,-9.16
2024-02-28T13:52:29.443Z,-9.09
2024-02-28T13:55:38.044Z,-9.43
2024-02-28T13:58:52.679Z,-9.41
2024-02-28T14:02:01.775Z,-9.54
2024-02-28T14:05:10.389Z,-9.23
2024-02-28T14:08:18.361Z,-9.46
2024-02-28T14:11:27.920Z,-9.56
2024-02-28T14:14:35.000Z,-9.27
2024-02-28T14:17:41.587Z,-9.59
2024-02-28T14:20:49.231Z,-9.32
2024-02-28T14:23:56.212Z,-9.45
2024-02-28T14:27:07.360Z,-9.83
2024-02-28T14:30:16.076Z,-9.78
2024-02-28T14:33:23.538Z,-9.92
2024-02-28T14:36:30.954Z,-9.67
2024-02-28T14:39:38.643Z,-9.74
2024-02-28T14:42:48.736Z,-9.95
2024-02-28T14:45:55.693Z,-10.26
2024-02-28T14:49:04.853Z,-10.37
2024-02-28T14:52:12.650Z,-10.19
2024-02-28T14:55:20.246Z,-10.28
2024-02-28T14:58:28.913Z,-10.16
2024-02-28T15:01:36.291Z,-9.83
2024-02-28T15:04:43.669Z,-9.89
2024-02-28T15:07:50.907Z,-9.74
2024-02-28T15:10:58.621Z,-9.96
2024-02-28T15:14:07.792Z,-10.23
2024-02-28T15:17:14.582Z,-10.29
2024-02-28T15:20:22.321Z,-9.84
2024-02-28T15:23:31.796Z,-9.94
2024-02-28T15:26:45.936Z,-9.95
2024-02-28T15:29:56.152Z,-9.93
2024-02-28T15:33:05.744Z,-9.97
2024-02-28T15:36:13.240Z,-9.78
2024-02-28T15:39:20.724Z,-9.36
2024-02-28T15:42:27.333Z,-9.21
2024-02-28T15:45:36.255Z,-9.39
2024-02-28T15:48:43.570Z,-9.62
2024-02-28T15:51:51.295Z,-9.54
2024-02-28T15:54:59.260Z,-9.66
2024-02-28T15:58:07.202Z,-9.54
2024-02-28T16:01:15.925Z,-9.42
2024-02-28T16:04:22.537Z,-9.39
2024-02-28T16:07:29.464Z,-9.73
2024-02-28T16:10:47.936Z,-9.79
2024-02-28T16:13:54.814Z,-10.25
2024-02-28T16:17:03.430Z,-10.53
2024-02-28T16:20:11.600Z,-10.33
2024-02-28T16:23:21.325Z,-10.04
2024-02-28T16:26:28.251Z,-10.12
2024-02-28T16:29:35.864Z,-10.33
2024-02-28T16:32:44.452Z,-10.48
2024-02-28T16:35:51.743Z,-10.38
2024-02-28T16:38:59.181Z,-10.90
2024-02-28T16:42:06.425Z,-10.65
2024-02-28T16:45:13.669Z,-10.47
2024-02-28T16:48:22.680Z,-10.34
2024-02-28T16:51:29.495Z,-10.56
2024-02-28T16:54:36.552Z,-10.32
2024-02-28T16:57:44.025Z,-10.13
2024-02-28T17:00:52.549Z,-10.55
2024-02-28T17:04:00.760Z,-10.47
2024-02-28T17:07:08.347Z,-10.62
2024-02-28T17:10:15.113Z,-10.34
2024-02-28T17:13:22.293Z,-10.85
2024-02-28T17:16:29.402Z,-10.74
2024-02-28T17:19:38.806Z,-10.46
2024-02-28T17:22:45.777Z,-10.46
2024-02-28T17:25:52.974Z,-10.75
2024-02-28T17:29:00.093Z,-10.54
2024-02-28T17:32:08.069Z,-10.41
2024-02-28T17:35:16.489Z,-10.42
2024-02-28T17:38:23.119Z,-10.66
2024-02-28T17:41:30.306Z,-10.67
2024-02-28T17:44:37.982Z,-10.57
2024-02-28T17:47:46.153Z,-10.49
2024-02-28T17:50:54.834Z,-10.39
2024-02-28T17:54:01.854Z,-10.09
2024-02-28T17:57:09.142Z,-9.90
2024-02-28T18:00:23.457Z,-10.29
2024-02-28T18:03:30.852Z,-10.32
2024-02-28T18:06:40.626Z,-10.42
2024-02-28T18:09:49.030Z,-10.35
2024-02-28T18:12:57.045Z,-10.50
2024-02-28T18:16:03.697Z,-10.73
2024-02-28T18:19:10.581Z,-10.07
2024-02-28T18:22:19.158Z,-10.03
2024-02-28T18:25:26.662Z,-10.34
2024-02-28T18:28:38.537Z,-10.13
2024-02-28T18:31:45.377Z,-10.20
2024-02-28T18:34:53.816Z,-9.89
2024-02-28T18:38:02.835Z,-9.88
2024-02-28T18:41:09.699Z,-10.07
2024-02-28T18:44:18.289Z,-10.40
2024-02-28T18:47:26.033Z,-10.52
2024-02-28T18:50:33.336Z,-10.50
2024-02-28T18:53:44.713Z,-10.58
2024-02-28T18:56:51.829Z,-10.26
2024-02-28T18:59:59.337Z,-10.16
2024-02-28T19:03:06.735Z,-9.92
2024-02-28T19:06:14.343Z,-10.06
2024-02-28T19:09:23.596Z,-10.42
2024-02-28T19:12:33.179Z,-10.53
2024-02-28T19:15:39.783Z,-10.58
2024-02-28T19:18:46.827Z,-10.34
2024-02-28T19:21:54.390Z,-10.11
2024-02-28T19:25:02.804Z,-10.06
2024-02-28T19:28:10.173Z,-10.35
2024-02-28T19:31:18.097Z,-10.56
2024-02-28T19:34:25.643Z,-10.38
2024-02-28T19:37:32.720Z,-10.01
2024-02-28T19:40:41.448Z,-10.29
2024-02-28T19:43:48.072Z,-10.12
2024-02-28T19:46:55.117Z,-9.83
2024-02-28T19:50:02.744Z,-9.88
2024-02-28T19:53:09.518Z,-10.54
2024-02-28T19:56:18.148Z,-10.60
2024-02-28T19:59:26.003Z,-10.48
2024-02-28T20:02:32.728Z,-10.94
2024-02-28T20:05:39.165Z,-10.43
2024-02-28T20:08:46.792Z,-10.36
2024-02-28T20:11:55.815Z,-10.40
2024-02-28T20:15:02.599Z,-10.74
2024-02-28T20:18:10.331Z,-10.99
2024-02-28T20:21:24.537Z,-11.03
2024-02-28T20:24:35.950Z,-11.12
2024-02-28T20:27:44.381Z,-11.19
2024-02-28T20:30:53.356Z,-11.50
2024-02-28T20:34:02.051Z,-11.53
2024-02-28T20:37:10.080Z,-11.15
2024-02-28T20:40:17.451Z,-11.45
2024-02-28T20:43:25.642Z,-11.90
2024-02-28T20:46:33.182Z,-11.99
2024-02-28T20:49:40.520Z,-11.70
2024-02-28T20:52:50.058Z,-11.79
2024-02-28T20:55:57.168Z,-11.85
2024-02-28T20:59:06.620Z,-12.44
2024-02-28T21:02:13.439Z,-12.30
2024-02-28T21:05:23.850Z,-12.49
2024-02-28T21:08:30.743Z,-12.66
2024-02-28T21:11:37.764Z,-12.90
2024-02-28T21:14:45.971Z,-12.84
2024-02-28T21:17:54.548Z,-12.38
2024-02-28T21:21:01.937Z,-12.32
2024-02-28T21:24:13.656Z,-13.71
2024-02-28T21:27:20.424Z,-12.54
2024-02-28T21:30:30.873Z,-12.34
2024-02-28T21:33:38.602Z,-12.08
2024-02-28T21:36:45.913Z,-11.89
2024-02-28T21:39:52.607Z,-11.96
2024-02-28T21:43:00.464Z,-11.92
2024-02-28T21:46:09.743Z,-12.17
2024-02-28T21:49:20.807Z,-12.30
2024-02-28T21:52:30.717Z,-12.37
2024-02-28T21:55:37.237Z,-12.00
2024-02-28T21:58:46.411Z,-11.94
2024-02-28T22:01:58.302Z,-11.70
2024-02-28T22:05:05.068Z,-11.51
2024-02-28T22:08:12.369Z,-11.56
2024-02-28T22:11:19.583Z,-11.59
2024-02-28T22:14:26.256Z,-11.51
2024-02-28T22:17:34.309Z,-11.72
2024-02-28T22:20:40.750Z,-11.41
2024-02-28T22:23:47.152Z,-11.38
2024-02-28T22:26:53.454Z,-11.26
2024-02-28T22:30:00.969Z,-11.31
2024-02-28T22:33:11.327Z,-11.18
2024-02-28T22:36:18.187Z,-10.98
2024-02-28T22:39:24.846Z,-11.09
2024-02-28T22:42:35.393Z,-11.13
2024-02-28T22:45:42.263Z,-10.93
2024-02-28T22:48:51.642Z,-10.20
2024-02-28T22:51:58.414Z,-9.89
2024-02-28T22:55:05.470Z,-9.56
2024-02-28T22:58:12.074Z,-9.42
2024-02-28T23:01:19.470Z,-9.39
2024-02-28T23:04:29.000Z,-9.21
2024-02-28T23:07:35.545Z,-9.62
2024-02-28T23:10:42.049Z,-9.70
2024-02-28T23:13:49.732Z,-9.83
2024-02-28T23:16:56.910Z,-9.67
2024-02-28T23:20:05.358Z,-9.71
2024-02-28T23:23:12.776Z,-9.25
2024-02-28T23:26:19.934Z,-8.68
2024-02-28T23:29:26.304Z,-8.96
2024-02-28T23:32:32.882Z,-8.98
2024-02-28T23:35:42.661Z,-9.09
2024-02-28T23:38:49.385Z,-9.12
2024-02-28T23:42:00.900Z,-8.72
2024-02-28T23:45:10.083Z,-8.52
2024-02-28T23:48:21.847Z,-8.62
2024-02-28T23:51:30.326Z,-8.16
2024-02-28T23:54:39.477Z,-8.14
2024-02-28T23:57:46.157Z,-8.19
